sensor_id;sensor_type;location;lat;lon;timestamp;pressure;altitude;pressure_sealevel;temperature;humidity
59654;BME280;66556;52.008;5.432;2023-07-20T00:02:50;101384.0;;;42.66;18.73
59654;BME280;66556;52.008;5.432;2023-07-20T00:04:26;101384.0;;;43.4;18.14
59654;BME280;66556;52.008;5.432;2023-07-20T00:06:02;101380.0;;;43.56;17.93
59654;BME280;66556;52.008;5.432;2023-07-20T00:09:14;101380.0;;;42.99;18.43
59654;BME280;66556;52.008;5.432;2023-07-20T00:10:51;101381.0;;;42.92;18.41
59654;BME280;66556;52.008;5.432;2023-07-20T00:12:27;101387.0;;;42.58;18.75
59654;BME280;66556;52.008;5.432;2023-07-20T00:15:39;101381.0;;;42.91;18.56
59654;BME280;66556;52.008;5.432;2023-07-20T00:17:15;101381.0;;;43.42;17.98
59654;BME280;66556;52.008;5.432;2023-07-20T00:18:51;101383.0;;;43.26;18.09
59654;BME280;66556;52.008;5.432;2023-07-20T00:20:27;101380.0;;;42.94;18.45
59654;BME280;66556;52.008;5.432;2023-07-20T00:23:39;101374.0;;;42.98;18.5
59654;BME280;66556;52.008;5.432;2023-07-20T00:25:16;101375.0;;;43.16;18.59
59654;BME280;66556;52.008;5.432;2023-07-20T00:26:52;101380.0;;;43.29;18.36
59654;BME280;66556;52.008;5.432;2023-07-20T00:30:05;101376.0;;;43.08;18.48
59654;BME280;66556;52.008;5.432;2023-07-20T00:31:41;101377.0;;;43.36;18.18
59654;BME280;66556;52.008;5.432;2023-07-20T00:33:18;101381.0;;;43.27;18.22
59654;BME280;66556;52.008;5.432;2023-07-20T00:36:30;101385.0;;;42.12;19.25
59654;BME280;66556;52.008;5.432;2023-07-20T00:38:06;101382.0;;;42.55;18.82
59654;BME280;66556;52.008;5.432;2023-07-20T00:39:43;101383.0;;;42.69;18.62
59654;BME280;66556;52.008;5.432;2023-07-20T00:42:55;101383.0;;;42.14;19.18
59654;BME280;66556;52.008;5.432;2023-07-20T00:44:31;101384.0;;;42.38;18.91
59654;BME280;66556;52.008;5.432;2023-07-20T00:46:08;101385.0;;;42.55;18.66
59654;BME280;66556;52.008;5.432;2023-07-20T00:47:46;101380.0;;;42.85;18.23
59654;BME280;66556;52.008;5.432;2023-07-20T00:51:00;101380.0;;;42.23;18.97
59654;BME280;66556;52.008;5.432;2023-07-20T00:52:37;101377.0;;;42.01;19.16
59654;BME280;66556;52.008;5.432;2023-07-20T00:54:14;101376.0;;;42.29;18.84
59654;BME280;66556;52.008;5.432;2023-07-20T00:57:27;101386.0;;;41.65;19.37
59654;BME280;66556;52.008;5.432;2023-07-20T00:59:03;101391.0;;;41.7;19.41
59654;BME280;66556;52.008;5.432;2023-07-20T01:00:40;101389.0;;;41.45;19.53
59654;BME280;66556;52.008;5.432;2023-07-20T01:02:16;101394.0;;;41.19;19.78
59654;BME280;66556;52.008;5.432;2023-07-20T01:05:35;101394.0;;;41.47;19.57
59654;BME280;66556;52.008;5.432;2023-07-20T01:07:21;101396.0;;;41.07;19.82
59654;BME280;66556;52.008;5.432;2023-07-20T01:09:07;101392.0;;;40.92;19.95
59654;BME280;66556;52.008;5.432;2023-07-20T01:10:52;101390.0;;;41.43;19.45
59654;BME280;66556;52.008;5.432;2023-07-20T01:14:19;101392.0;;;41.87;19.0
59654;BME280;66556;52.008;5.432;2023-07-20T01:15:56;101394.0;;;41.77;19.06
59654;BME280;66556;52.008;5.432;2023-07-20T01:17:36;101392.0;;;41.6;19.18
59654;BME280;66556;52.008;5.432;2023-07-20T01:19:13;101390.0;;;42.52;18.29
59654;BME280;66556;52.008;5.432;2023-07-20T01:22:40;101391.0;;;42.06;18.61
59654;BME280;66556;52.008;5.432;2023-07-20T01:25:07;101392.0;;;41.99;18.66
59654;BME280;66556;52.008;5.432;2023-07-20T01:27:04;101395.0;;;41.82;18.79
59654;BME280;66556;52.008;5.432;2023-07-20T01:30:16;101394.0;;;41.91;18.59
59654;BME280;66556;52.008;5.432;2023-07-20T01:32:02;101393.0;;;41.7;18.82
59654;BME280;66556;52.008;5.432;2023-07-20T01:33:41;101390.0;;;42.12;18.28
59654;BME280;66556;52.008;5.432;2023-07-20T01:36:58;101389.0;;;42.21;18.16
59654;BME280;66556;52.008;5.432;2023-07-20T01:38:36;101390.0;;;41.89;18.46
59654;BME280;66556;52.008;5.432;2023-07-20T01:40:13;101392.0;;;41.97;18.34
59654;BME280;66556;52.008;5.432;2023-07-20T01:43:26;101387.0;;;42.34;17.81
59654;BME280;66556;52.008;5.432;2023-07-20T01:45:02;101398.0;;;42.21;17.89
59654;BME280;66556;52.008;5.432;2023-07-20T01:46:39;101397.0;;;41.86;18.3
59654;BME280;66556;52.008;5.432;2023-07-20T01:48:15;101401.0;;;41.9;18.39
59654;BME280;66556;52.008;5.432;2023-07-20T01:51:27;101401.0;;;41.77;18.27
59654;BME280;66556;52.008;5.432;2023-07-20T01:53:04;101396.0;;;41.91;18.41
59654;BME280;66556;52.008;5.432;2023-07-20T01:54:40;101405.0;;;41.91;18.29
59654;BME280;66556;52.008;5.432;2023-07-20T01:57:52;101402.0;;;41.87;18.27
59654;BME280;66556;52.008;5.432;2023-07-20T01:59:29;101403.0;;;42.11;17.78
59654;BME280;66556;52.008;5.432;2023-07-20T02:01:05;101406.0;;;41.87;18.12
59654;BME280;66556;52.008;5.432;2023-07-20T02:04:17;101412.0;;;41.8;18.14
59654;BME280;66556;52.008;5.432;2023-07-20T02:05:53;101409.0;;;42.15;17.71
59654;BME280;66556;52.008;5.432;2023-07-20T02:07:30;101408.0;;;41.66;18.13
59654;BME280;66556;52.008;5.432;2023-07-20T02:10:45;101405.0;;;41.31;18.43
59654;BME280;66556;52.008;5.432;2023-07-20T02:12:21;101402.0;;;41.24;18.2
59654;BME280;66556;52.008;5.432;2023-07-20T02:13:57;101405.0;;;40.81;18.59
59654;BME280;66556;52.008;5.432;2023-07-20T02:15:33;101406.0;;;41.63;17.89
59654;BME280;66556;52.008;5.432;2023-07-20T02:18:45;101403.0;;;41.57;17.71
59654;BME280;66556;52.008;5.432;2023-07-20T02:20:22;101410.0;;;40.6;18.66
59654;BME280;66556;52.008;5.432;2023-07-20T02:21:58;101407.0;;;41.22;17.89
59654;BME280;66556;52.008;5.432;2023-07-20T02:25:10;101410.0;;;40.89;18.11
59654;BME280;66556;52.008;5.432;2023-07-20T02:26:46;101407.0;;;40.25;18.57
59654;BME280;66556;52.008;5.432;2023-07-20T02:28:22;101408.0;;;40.67;18.16
59654;BME280;66556;52.008;5.432;2023-07-20T02:31:34;101414.0;;;38.24;20.56
59654;BME280;66556;52.008;5.432;2023-07-20T02:33:10;101413.0;;;40.1;18.78
59654;BME280;66556;52.008;5.432;2023-07-20T02:34:47;101409.0;;;38.96;19.72
59654;BME280;66556;52.008;5.432;2023-07-20T02:36:23;101414.0;;;38.44;20.21
59654;BME280;66556;52.008;5.432;2023-07-20T02:39:35;101416.0;;;38.78;19.93
59654;BME280;66556;52.008;5.432;2023-07-20T02:41:12;101409.0;;;38.74;19.88
59654;BME280;66556;52.008;5.432;2023-07-20T02:42:49;101410.0;;;39.62;19.12
59654;BME280;66556;52.008;5.432;2023-07-20T02:46:01;101415.0;;;39.26;19.48
59654;BME280;66556;52.008;5.432;2023-07-20T02:47:37;101413.0;;;39.39;19.23
59654;BME280;66556;52.008;5.432;2023-07-20T02:49:13;101417.0;;;39.58;19.16
59654;BME280;66556;52.008;5.432;2023-07-20T02:52:26;101419.0;;;39.58;19.02
59654;BME280;66556;52.008;5.432;2023-07-20T02:54:02;101425.0;;;39.06;19.64
59654;BME280;66556;52.008;5.432;2023-07-20T02:55:38;101427.0;;;38.76;19.73
59654;BME280;66556;52.008;5.432;2023-07-20T02:58:50;101430.0;;;40.28;18.39
59654;BME280;66556;52.008;5.432;2023-07-20T03:00:27;101431.0;;;40.35;18.34
59654;BME280;66556;52.008;5.432;2023-07-20T03:02:03;101434.0;;;39.06;19.2
59654;BME280;66556;52.008;5.432;2023-07-20T03:03:39;101440.0;;;38.14;20.11
59654;BME280;66556;52.008;5.432;2023-07-20T03:06:52;101438.0;;;38.36;19.95
59654;BME280;66556;52.008;5.432;2023-07-20T03:08:28;101441.0;;;38.1;20.12
59654;BME280;66556;52.008;5.432;2023-07-20T03:10:05;101444.0;;;38.49;19.7
59654;BME280;66556;52.008;5.432;2023-07-20T03:13:17;101440.0;;;38.26;19.86
59654;BME280;66556;52.008;5.432;2023-07-20T03:14:53;101439.0;;;39.06;19.23
59654;BME280;66556;52.008;5.432;2023-07-20T03:16:29;101439.0;;;39.31;18.95
59654;BME280;66556;52.008;5.432;2023-07-20T03:19:42;101439.0;;;38.99;18.98
59654;BME280;66556;52.008;5.432;2023-07-20T03:21:18;101445.0;;;38.83;19.37
59654;BME280;66556;52.008;5.432;2023-07-20T03:22:54;101448.0;;;38.92;19.25
59654;BME280;66556;52.008;5.432;2023-07-20T03:24:30;101453.0;;;39.19;18.91
59654;BME280;66556;52.008;5.432;2023-07-20T03:27:42;101452.0;;;39.39;18.73
59654;BME280;66556;52.008;5.432;2023-07-20T03:29:18;101455.0;;;38.67;19.45
59654;BME280;66556;52.008;5.432;2023-07-20T03:30:54;101451.0;;;39.79;18.62
59654;BME280;66556;52.008;5.432;2023-07-20T03:34:07;101457.0;;;39.31;18.91
59654;BME280;66556;52.008;5.432;2023-07-20T03:35:44;101458.0;;;39.22;19.05
59654;BME280;66556;52.008;5.432;2023-07-20T03:37:20;101455.0;;;39.61;18.81
59654;BME280;66556;52.008;5.432;2023-07-20T03:40:32;101452.0;;;39.47;18.73
59654;BME280;66556;52.008;5.432;2023-07-20T03:42:08;101453.0;;;39.46;18.73
59654;BME280;66556;52.008;5.432;2023-07-20T03:43:44;101451.0;;;39.24;19.09
59654;BME280;66556;52.008;5.432;2023-07-20T03:46:56;101452.0;;;39.54;18.75
59654;BME280;66556;52.008;5.432;2023-07-20T03:48:33;101450.0;;;40.58;17.91
59654;BME280;66556;52.008;5.432;2023-07-20T03:50:10;101449.0;;;40.5;17.91
59654;BME280;66556;52.008;5.432;2023-07-20T03:51:46;101448.0;;;40.32;17.86
59654;BME280;66556;52.008;5.432;2023-07-20T03:54:58;101448.0;;;39.71;18.27
59654;BME280;66556;52.008;5.432;2023-07-20T03:56:34;101453.0;;;39.94;18.18
59654;BME280;66556;52.008;5.432;2023-07-20T03:58:10;101451.0;;;39.64;18.36
59654;BME280;66556;52.008;5.432;2023-07-20T04:01:24;101453.0;;;39.58;18.53
59654;BME280;66556;52.008;5.432;2023-07-20T04:03:00;101456.0;;;39.32;19.03
59654;BME280;66556;52.008;5.432;2023-07-20T04:04:36;101456.0;;;39.17;19.02
59654;BME280;66556;52.008;5.432;2023-07-20T04:07:49;101460.0;;;39.14;19.13
59654;BME280;66556;52.008;5.432;2023-07-20T04:09:25;101459.0;;;39.36;18.79
59654;BME280;66556;52.008;5.432;2023-07-20T04:11:01;101458.0;;;39.67;18.68
59654;BME280;66556;52.008;5.432;2023-07-20T04:12:37;101467.0;;;39.94;18.61
59654;BME280;66556;52.008;5.432;2023-07-20T04:15:49;101467.0;;;39.86;18.68
59654;BME280;66556;52.008;5.432;2023-07-20T04:17:25;101469.0;;;39.5;19.0
59654;BME280;66556;52.008;5.432;2023-07-20T04:19:01;101465.0;;;39.67;18.7
59654;BME280;66556;52.008;5.432;2023-07-20T04:22:14;101473.0;;;38.42;20.13
59654;BME280;66556;52.008;5.432;2023-07-20T04:23:50;101464.0;;;39.19;19.53
59654;BME280;66556;52.008;5.432;2023-07-20T04:25:26;101462.0;;;39.33;19.5
59654;BME280;66556;52.008;5.432;2023-07-20T04:28:38;101464.0;;;39.67;19.05
59654;BME280;66556;52.008;5.432;2023-07-20T04:30:17;101470.0;;;39.81;18.97
59654;BME280;66556;52.008;5.432;2023-07-20T04:31:53;101474.0;;;40.37;18.61
59654;BME280;66556;52.008;5.432;2023-07-20T04:35:06;101476.0;;;40.5;18.75
59654;BME280;66556;52.008;5.432;2023-07-20T04:36:43;101480.0;;;40.72;18.53
59654;BME280;66556;52.008;5.432;2023-07-20T04:38:19;101483.0;;;40.1;19.18
59654;BME280;66556;52.008;5.432;2023-07-20T04:39:56;101480.0;;;40.53;18.84
59654;BME280;66556;52.008;5.432;2023-07-20T04:43:08;101480.0;;;40.94;18.46
59654;BME280;66556;52.008;5.432;2023-07-20T04:44:44;101474.0;;;40.67;18.84
59654;BME280;66556;52.008;5.432;2023-07-20T04:46:20;101477.0;;;41.85;17.84
59654;BME280;66556;52.008;5.432;2023-07-20T04:49:32;101478.0;;;40.85;18.7
59654;BME280;66556;52.008;5.432;2023-07-20T04:51:09;101477.0;;;41.37;18.34
59654;BME280;66556;52.008;5.432;2023-07-20T04:52:45;101481.0;;;40.9;18.81
59654;BME280;66556;52.008;5.432;2023-07-20T04:55:57;101480.0;;;41.38;18.34
59654;BME280;66556;52.008;5.432;2023-07-20T04:57:33;101480.0;;;41.63;18.29
59654;BME280;66556;52.008;5.432;2023-07-20T04:59:09;101480.0;;;41.58;18.59
59654;BME280;66556;52.008;5.432;2023-07-20T05:00:45;101480.0;;;42.15;18.09
59654;BME280;66556;52.008;5.432;2023-07-20T05:03:57;101482.0;;;42.51;17.84
59654;BME280;66556;52.008;5.432;2023-07-20T05:05:34;101484.0;;;42.07;18.25
59654;BME280;66556;52.008;5.432;2023-07-20T05:07:10;101484.0;;;41.85;18.59
59654;BME280;66556;52.008;5.432;2023-07-20T05:10:23;101484.0;;;41.69;19.06
59654;BME280;66556;52.008;5.432;2023-07-20T05:11:59;101487.0;;;41.62;19.0
59654;BME280;66556;52.008;5.432;2023-07-20T05:13:36;101489.0;;;41.64;18.89
59654;BME280;66556;52.008;5.432;2023-07-20T05:16:49;101489.0;;;41.39;19.14
59654;BME280;66556;52.008;5.432;2023-07-20T05:18:25;101493.0;;;42.15;18.55
59654;BME280;66556;52.008;5.432;2023-07-20T05:20:01;101489.0;;;42.01;18.39
59654;BME280;66556;52.008;5.432;2023-07-20T05:21:38;101489.0;;;41.99;18.46
59654;BME280;66556;52.008;5.432;2023-07-20T05:24:50;101491.0;;;41.67;18.84
59654;BME280;66556;52.008;5.432;2023-07-20T05:26:26;101493.0;;;41.96;18.84
59654;BME280;66556;52.008;5.432;2023-07-20T05:28:03;101490.0;;;41.73;18.82
59654;BME280;66556;52.008;5.432;2023-07-20T05:31:20;101494.0;;;41.56;19.03
59654;BME280;66556;52.008;5.432;2023-07-20T05:32:56;101495.0;;;41.8;18.77
59654;BME280;66556;52.008;5.432;2023-07-20T05:34:32;101492.0;;;42.54;18.41
59654;BME280;66556;52.008;5.432;2023-07-20T05:37:45;101494.0;;;42.29;18.46
59654;BME280;66556;52.008;5.432;2023-07-20T05:39:21;101494.0;;;42.15;18.7
59654;BME280;66556;52.008;5.432;2023-07-20T05:41:00;101492.0;;;42.91;18.34
59654;BME280;66556;52.008;5.432;2023-07-20T05:42:36;101496.0;;;42.41;18.37
59654;BME280;66556;52.008;5.432;2023-07-20T05:45:49;101491.0;;;42.17;18.34
59654;BME280;66556;52.008;5.432;2023-07-20T05:47:25;101488.0;;;42.63;18.37
59654;BME280;66556;52.008;5.432;2023-07-20T05:49:01;101486.0;;;43.13;17.77
59654;BME280;66556;52.008;5.432;2023-07-20T05:52:18;101490.0;;;43.21;17.78
59654;BME280;66556;52.008;5.432;2023-07-20T05:53:54;101481.0;;;43.6;17.34
59654;BME280;66556;52.008;5.432;2023-07-20T05:55:31;101485.0;;;43.84;17.36
59654;BME280;66556;52.008;5.432;2023-07-20T05:58:44;101484.0;;;43.79;17.28
59654;BME280;66556;52.008;5.432;2023-07-20T06:00:20;101484.0;;;43.62;17.2
59654;BME280;66556;52.008;5.432;2023-07-20T06:01:56;101483.0;;;43.86;17.07
59654;BME280;66556;52.008;5.432;2023-07-20T06:03:32;101487.0;;;43.83;17.0
59654;BME280;66556;52.008;5.432;2023-07-20T06:06:45;101490.0;;;43.85;17.27
59654;BME280;66556;52.008;5.432;2023-07-20T06:08:21;101489.0;;;44.51;16.55
59654;BME280;66556;52.008;5.432;2023-07-20T06:09:57;101496.0;;;44.44;16.52
59654;BME280;66556;52.008;5.432;2023-07-20T06:13:10;101497.0;;;45.06;16.34
59654;BME280;66556;52.008;5.432;2023-07-20T06:14:46;101496.0;;;44.35;16.63
59654;BME280;66556;52.008;5.432;2023-07-20T06:16:22;101495.0;;;44.67;16.62
59654;BME280;66556;52.008;5.432;2023-07-20T06:19:35;101492.0;;;44.91;16.61
59654;BME280;66556;52.008;5.432;2023-07-20T06:21:11;101491.0;;;45.11;16.36
59654;BME280;66556;52.008;5.432;2023-07-20T06:22:47;101493.0;;;45.06;16.43
59654;BME280;66556;52.008;5.432;2023-07-20T06:24:23;101493.0;;;45.72;16.18
59654;BME280;66556;52.008;5.432;2023-07-20T06:27:35;101501.0;;;45.54;16.02
59654;BME280;66556;52.008;5.432;2023-07-20T06:29:12;101505.0;;;45.36;16.57
59654;BME280;66556;52.008;5.432;2023-07-20T06:30:48;101507.0;;;46.16;15.44
59654;BME280;66556;52.008;5.432;2023-07-20T06:34:00;101512.0;;;45.9;15.5
59654;BME280;66556;52.008;5.432;2023-07-20T06:35:36;101509.0;;;46.12;16.02
59654;BME280;66556;52.008;5.432;2023-07-20T06:37:12;101517.0;;;46.28;15.41
59654;BME280;66556;52.008;5.432;2023-07-20T06:40:24;101513.0;;;47.92;13.71
59654;BME280;66556;52.008;5.432;2023-07-20T06:42:01;101507.0;;;48.12;13.95
59654;BME280;66556;52.008;5.432;2023-07-20T06:43:37;101511.0;;;47.54;13.96
59654;BME280;66556;52.008;5.432;2023-07-20T06:46:49;101505.0;;;48.08;13.8
59654;BME280;66556;52.008;5.432;2023-07-20T06:48:25;101515.0;;;48.0;13.98
59654;BME280;66556;52.008;5.432;2023-07-20T06:50:01;101512.0;;;48.11;14.12
59654;BME280;66556;52.008;5.432;2023-07-20T06:51:37;101516.0;;;47.96;13.3
59654;BME280;66556;52.008;5.432;2023-07-20T06:54:49;101512.0;;;48.19;14.02
59654;BME280;66556;52.008;5.432;2023-07-20T06:58:02;101522.0;;;47.31;14.24
59654;BME280;66556;52.008;5.432;2023-07-20T07:01:14;101522.0;;;47.75;13.56
59654;BME280;66556;52.008;5.432;2023-07-20T07:02:50;101522.0;;;47.52;14.12
59654;BME280;66556;52.008;5.432;2023-07-20T07:04:26;101521.0;;;47.69;13.24
59654;BME280;66556;52.008;5.432;2023-07-20T07:07:39;101524.0;;;48.08;13.89
59654;BME280;66556;52.008;5.432;2023-07-20T07:09:15;101522.0;;;47.84;13.66
59654;BME280;66556;52.008;5.432;2023-07-20T07:10:52;101525.0;;;48.03;13.68
59654;BME280;66556;52.008;5.432;2023-07-20T07:14:04;101517.0;;;48.07;12.81
59654;BME280;66556;52.008;5.432;2023-07-20T07:15:40;101520.0;;;48.32;12.22
59654;BME280;66556;52.008;5.432;2023-07-20T07:17:16;101522.0;;;47.62;12.93
59654;BME280;66556;52.008;5.432;2023-07-20T07:18:52;101524.0;;;47.34;12.94
59654;BME280;66556;52.008;5.432;2023-07-20T07:22:05;101528.0;;;46.58;13.61
59654;BME280;66556;52.008;5.432;2023-07-20T07:23:41;101526.0;;;47.45;13.0
59654;BME280;66556;52.008;5.432;2023-07-20T07:25:17;101526.0;;;47.17;12.39
59654;BME280;66556;52.008;5.432;2023-07-20T07:28:29;101530.0;;;47.14;11.97
59654;BME280;66556;52.008;5.432;2023-07-20T07:30:06;101520.0;;;47.64;11.66
59654;BME280;66556;52.008;5.432;2023-07-20T07:31:43;101526.0;;;46.48;12.65
59654;BME280;66556;52.008;5.432;2023-07-20T07:34:56;101531.0;;;47.25;13.6
59654;BME280;66556;52.008;5.432;2023-07-20T07:36:32;101530.0;;;47.07;12.77
59654;BME280;66556;52.008;5.432;2023-07-20T07:38:09;101531.0;;;47.05;13.13
59654;BME280;66556;52.008;5.432;2023-07-20T07:39:45;101527.0;;;47.46;13.34
59654;BME280;66556;52.008;5.432;2023-07-20T07:42:57;101530.0;;;47.31;13.11
59654;BME280;66556;52.008;5.432;2023-07-20T07:44:33;101526.0;;;47.74;13.93
59654;BME280;66556;52.008;5.432;2023-07-20T07:46:09;101524.0;;;48.37;12.83
59654;BME280;66556;52.008;5.432;2023-07-20T07:49:21;101528.0;;;47.87;13.88
59654;BME280;66556;52.008;5.432;2023-07-20T07:50:57;101533.0;;;48.12;12.83
59654;BME280;66556;52.008;5.432;2023-07-20T07:52:34;101530.0;;;47.74;13.49
59654;BME280;66556;52.008;5.432;2023-07-20T07:55:47;101530.0;;;49.51;11.62
59654;BME280;66556;52.008;5.432;2023-07-20T07:57:23;101532.0;;;49.22;12.59
59654;BME280;66556;52.008;5.432;2023-07-20T07:58:59;101531.0;;;48.81;12.39
59654;BME280;66556;52.008;5.432;2023-07-20T08:02:11;101526.0;;;49.64;11.05
59654;BME280;66556;52.008;5.432;2023-07-20T08:03:47;101522.0;;;48.71;11.97
59654;BME280;66556;52.008;5.432;2023-07-20T08:05:24;101523.0;;;48.79;12.1
59654;BME280;66556;52.008;5.432;2023-07-20T08:07:00;101523.0;;;49.24;12.17
59654;BME280;66556;52.008;5.432;2023-07-20T08:10:14;101521.0;;;49.43;11.69
59654;BME280;66556;52.008;5.432;2023-07-20T08:11:50;101522.0;;;48.73;11.21
59654;BME280;66556;52.008;5.432;2023-07-20T08:13:26;101520.0;;;49.28;10.94
59654;BME280;66556;52.008;5.432;2023-07-20T08:16:38;101526.0;;;48.24;11.78
59654;BME280;66556;52.008;5.432;2023-07-20T08:18:14;101526.0;;;49.27;11.29
59654;BME280;66556;52.008;5.432;2023-07-20T08:19:51;101526.0;;;48.93;11.54
59654;BME280;66556;52.008;5.432;2023-07-20T08:23:03;101525.0;;;49.34;9.92
59654;BME280;66556;52.008;5.432;2023-07-20T08:24:40;101522.0;;;50.0;11.43
59654;BME280;66556;52.008;5.432;2023-07-20T08:26:16;101526.0;;;49.19;10.66
59654;BME280;66556;52.008;5.432;2023-07-20T08:27:52;101524.0;;;49.78;10.69
59654;BME280;66556;52.008;5.432;2023-07-20T08:31:05;101528.0;;;49.36;11.34
59654;BME280;66556;52.008;5.432;2023-07-20T08:32:43;101530.0;;;49.56;10.97
59654;BME280;66556;52.008;5.432;2023-07-20T08:34:19;101533.0;;;49.55;10.22
59654;BME280;66556;52.008;5.432;2023-07-20T08:37:31;101541.0;;;50.01;11.39
59654;BME280;66556;52.008;5.432;2023-07-20T08:39:07;101541.0;;;50.46;10.84
59654;BME280;66556;52.008;5.432;2023-07-20T08:40:45;101542.0;;;49.75;10.87
59654;BME280;66556;52.008;5.432;2023-07-20T08:44:00;101541.0;;;49.65;10.81
59654;BME280;66556;52.008;5.432;2023-07-20T08:45:39;101540.0;;;48.75;11.28
59654;BME280;66556;52.008;5.432;2023-07-20T08:47:16;101540.0;;;48.11;10.98
59654;BME280;66556;52.008;5.432;2023-07-20T08:48:53;101535.0;;;49.93;11.19
59654;BME280;66556;52.008;5.432;2023-07-20T08:52:08;101537.0;;;49.24;11.25
59654;BME280;66556;52.008;5.432;2023-07-20T08:53:45;101539.0;;;49.33;10.96
59654;BME280;66556;52.008;5.432;2023-07-20T08:55:23;101535.0;;;49.6;11.9
59654;BME280;66556;52.008;5.432;2023-07-20T08:58:41;101539.0;;;48.98;11.45
59654;BME280;66556;52.008;5.432;2023-07-20T09:00:21;101543.0;;;49.24;10.89
59654;BME280;66556;52.008;5.432;2023-07-20T09:01:58;101536.0;;;48.32;11.0
59654;BME280;66556;52.008;5.432;2023-07-20T09:03:35;101533.0;;;49.97;11.58
59654;BME280;66556;52.008;5.432;2023-07-20T09:06:48;101533.0;;;50.59;10.18
59654;BME280;66556;52.008;5.432;2023-07-20T09:08:25;101530.0;;;49.67;10.68
59654;BME280;66556;52.008;5.432;2023-07-20T09:10:01;101525.0;;;50.69;11.07
59654;BME280;66556;52.008;5.432;2023-07-20T09:13:16;101521.0;;;51.12;9.9
59654;BME280;66556;52.008;5.432;2023-07-20T09:14:52;101531.0;;;50.1;11.14
59654;BME280;66556;52.008;5.432;2023-07-20T09:16:28;101534.0;;;50.06;10.64
59654;BME280;66556;52.008;5.432;2023-07-20T09:18:04;101532.0;;;50.36;10.92
59654;BME280;66556;52.008;5.432;2023-07-20T09:21:22;101536.0;;;49.29;10.49
59654;BME280;66556;52.008;5.432;2023-07-20T09:22:58;101532.0;;;49.97;9.36
59654;BME280;66556;52.008;5.432;2023-07-20T09:24:34;101537.0;;;50.26;9.14
59654;BME280;66556;52.008;5.432;2023-07-20T09:27:49;101536.0;;;50.15;10.52
59654;BME280;66556;52.008;5.432;2023-07-20T09:29:26;101531.0;;;50.45;10.56
59654;BME280;66556;52.008;5.432;2023-07-20T09:31:15;101530.0;;;50.87;9.39
59654;BME280;66556;52.008;5.432;2023-07-20T09:32:52;101530.0;;;51.0;9.32
59654;BME280;66556;52.008;5.432;2023-07-20T09:36:05;101535.0;;;51.58;9.18
59654;BME280;66556;52.008;5.432;2023-07-20T09:37:46;101530.0;;;51.45;9.78
59654;BME280;66556;52.008;5.432;2023-07-20T09:39:22;101526.0;;;51.44;9.43
59654;BME280;66556;52.008;5.432;2023-07-20T09:42:36;101527.0;;;50.33;9.18
59654;BME280;66556;52.008;5.432;2023-07-20T09:44:14;101530.0;;;50.92;9.51
59654;BME280;66556;52.008;5.432;2023-07-20T09:45:57;101527.0;;;51.87;9.3
59654;BME280;66556;52.008;5.432;2023-07-20T09:47:35;101523.0;;;51.84;8.34
59654;BME280;66556;52.008;5.432;2023-07-20T09:50:50;101520.0;;;51.44;8.39
59654;BME280;66556;52.008;5.432;2023-07-20T09:52:27;101519.0;;;50.43;9.08
59654;BME280;66556;52.008;5.432;2023-07-20T09:54:04;101517.0;;;51.46;8.56
59654;BME280;66556;52.008;5.432;2023-07-20T09:57:18;101522.0;;;49.9;9.39
59654;BME280;66556;52.008;5.432;2023-07-20T09:58:57;101518.0;;;49.86;9.52
59654;BME280;66556;52.008;5.432;2023-07-20T10:00:34;101521.0;;;49.17;9.98
59654;BME280;66556;52.008;5.432;2023-07-20T10:02:20;101518.0;;;49.13;9.42
59654;BME280;66556;52.008;5.432;2023-07-20T10:05:40;101523.0;;;48.54;10.18
59654;BME280;66556;52.008;5.432;2023-07-20T10:07:21;101516.0;;;49.36;9.03
59654;BME280;66556;52.008;5.432;2023-07-20T10:09:02;101519.0;;;48.89;10.36
59654;BME280;66556;52.008;5.432;2023-07-20T10:10:40;101514.0;;;49.08;9.41
59654;BME280;66556;52.008;5.432;2023-07-20T10:13:59;101525.0;;;49.2;9.56
59654;BME280;66556;52.008;5.432;2023-07-20T10:15:43;101520.0;;;48.77;10.34
59654;BME280;66556;52.008;5.432;2023-07-20T10:17:24;101515.0;;;49.53;9.57
59654;BME280;66556;52.008;5.432;2023-07-20T10:19:05;101509.0;;;49.59;9.73
59654;BME280;66556;52.008;5.432;2023-07-20T10:22:26;101508.0;;;50.31;9.39
59654;BME280;66556;52.008;5.432;2023-07-20T10:24:07;101516.0;;;49.57;9.8
59654;BME280;66556;52.008;5.432;2023-07-20T10:25:45;101506.0;;;49.78;9.58
59654;BME280;66556;52.008;5.432;2023-07-20T10:27:23;101511.0;;;49.38;9.8
59654;BME280;66556;52.008;5.432;2023-07-20T10:30:38;101509.0;;;49.37;9.38
59654;BME280;66556;52.008;5.432;2023-07-20T10:32:14;101505.0;;;50.75;8.96
59654;BME280;66556;52.008;5.432;2023-07-20T10:33:50;101502.0;;;50.29;9.08
59654;BME280;66556;52.008;5.432;2023-07-20T10:35:27;101507.0;;;49.0;10.13
59654;BME280;66556;52.008;5.432;2023-07-20T10:38:42;101513.0;;;47.95;10.14
59654;BME280;66556;52.008;5.432;2023-07-20T10:40:27;101502.0;;;47.46;11.38
59654;BME280;66556;52.008;5.432;2023-07-20T10:42:14;101500.0;;;49.05;10.17
59654;BME280;66556;52.008;5.432;2023-07-20T10:43:50;101496.0;;;49.04;9.21
59654;BME280;66556;52.008;5.432;2023-07-20T10:47:28;101495.0;;;50.3;9.35
59654;BME280;66556;52.008;5.432;2023-07-20T10:49:20;101501.0;;;49.26;9.47
59654;BME280;66556;52.008;5.432;2023-07-20T10:51:13;101501.0;;;49.48;9.47
59654;BME280;66556;52.008;5.432;2023-07-20T10:53:04;101500.0;;;48.98;10.66
59654;BME280;66556;52.008;5.432;2023-07-20T10:54:48;101494.0;;;50.81;9.83
59654;BME280;66556;52.008;5.432;2023-07-20T10:56:27;101496.0;;;49.76;10.37
59654;BME280;66556;52.008;5.432;2023-07-20T10:59:46;101491.0;;;50.05;11.04
59654;BME280;66556;52.008;5.432;2023-07-20T11:01:27;101489.0;;;50.75;9.21
59654;BME280;66556;52.008;5.432;2023-07-20T11:03:04;101488.0;;;51.06;9.26
59654;BME280;66556;52.008;5.432;2023-07-20T11:06:34;101490.0;;;50.96;8.89
59654;BME280;66556;52.008;5.432;2023-07-20T11:08:11;101488.0;;;49.6;9.36
59654;BME280;66556;52.008;5.432;2023-07-20T11:09:48;101485.0;;;51.42;8.57
59654;BME280;66556;52.008;5.432;2023-07-20T11:11:25;101487.0;;;48.71;9.84